createdAt,value
2018-09-11T00:03:38.149Z,20.30
2018-09-11T00:08:41.273Z,20.30
2018-09-11T00:13:44.386Z,20.20
2018-09-11T00:18:47.494Z,20.20
2018-09-11T00:23:50.615Z,20.20
2018-09-11T00:28:53.868Z,20.20
2018-09-11T00:33:56.967Z,20.20
2018-09-11T00:39:00.046Z,20.20
2018-09-11T00:44:03.150Z,20.10
2018-09-11T00:49:06.262Z,20.10
2018-09-11T00:54:10.091Z,20.10
2018-09-11T00:59:13.200Z,20.00
2018-09-11T01:04:16.300Z,20.00
2018-09-11T01:09:19.383Z,20.10
2018-09-11T01:14:22.491Z,20.00
2018-09-11T01:19:25.585Z,20.00
2018-09-11T01:24:28.691Z,20.00
2018-09-11T01:29:31.789Z,20.00
2018-09-11T01:34:34.890Z,20.00
2018-09-11T01:39:37.999Z,20.00
2018-09-11T01:44:41.079Z,20.00
2018-09-11T01:49:44.193Z,20.00
2018-09-11T01:54:47.292Z,20.00
2018-09-11T01:59:50.395Z,20.00
2018-09-11T02:04:53.918Z,20.00
2018-09-11T02:09:57.092Z,20.00
2018-09-11T02:15:00.206Z,20.00
2018-09-11T02:20:03.317Z,20.00
2018-09-11T02:25:06.430Z,19.90
2018-09-11T02:30:09.523Z,19.90
2018-09-11T02:35:12.607Z,20.00
2018-09-11T02:40:15.880Z,19.90
2018-09-11T02:45:22.565Z,19.90
2018-09-11T02:50:25.741Z,19.90
2018-09-11T02:55:28.826Z,19.90
2018-09-11T03:00:31.915Z,19.90
2018-09-11T03:05:35.011Z,19.90
2018-09-11T03:10:38.095Z,20.00
2018-09-11T03:15:41.175Z,20.00
2018-09-11T03:20:44.258Z,19.90
2018-09-11T03:25:47.382Z,19.90
2018-09-11T03:30:50.556Z,19.90
2018-09-11T03:35:53.659Z,20.00
2018-09-11T03:40:56.739Z,20.00
2018-09-11T03:45:59.876Z,19.90
2018-09-11T03:51:02.978Z,20.00
2018-09-11T03:56:06.075Z,19.90
2018-09-11T04:01:09.171Z,19.90
2018-09-11T04:06:12.335Z,19.90
2018-09-11T04:11:15.433Z,19.90
2018-09-11T04:16:18.531Z,19.90
2018-09-11T04:21:21.627Z,19.90
2018-09-11T04:26:24.750Z,19.90
2018-09-11T04:31:27.850Z,19.90
2018-09-11T04:36:31.048Z,19.90
2018-09-11T04:41:34.067Z,19.90
2018-09-11T04:46:37.180Z,19.90
2018-09-11T04:51:40.271Z,19.90
2018-09-11T04:56:43.352Z,19.90
2018-09-11T05:01:46.548Z,19.90
2018-09-11T05:06:49.855Z,19.90
2018-09-11T05:11:52.937Z,19.80
2018-09-11T05:16:56.031Z,19.80
2018-09-11T05:21:59.132Z,19.80
2018-09-11T05:27:02.227Z,19.80
2018-09-11T05:32:05.374Z,19.80
2018-09-11T05:37:08.577Z,19.80
2018-09-11T05:42:11.658Z,19.80
2018-09-11T05:47:14.821Z,19.70
2018-09-11T05:52:17.913Z,19.70
2018-09-11T05:57:21.022Z,19.70
2018-09-11T06:02:24.119Z,19.70
2018-09-11T06:07:27.226Z,19.80
2018-09-11T06:12:30.315Z,19.80
2018-09-11T06:17:33.415Z,19.80
2018-09-11T06:22:36.547Z,19.80
2018-09-11T06:27:39.718Z,19.80
2018-09-11T06:32:42.871Z,19.90
2018-09-11T06:37:45.980Z,19.90
2018-09-11T06:42:49.064Z,20.00
2018-09-11T06:47:52.248Z,20.00
2018-09-11T06:52:55.319Z,20.00
2018-09-11T06:57:58.423Z,20.10
2018-09-11T07:03:01.511Z,20.20
2018-09-11T07:08:04.594Z,20.20
2018-09-11T07:13:07.924Z,20.30
2018-09-11T07:18:11.053Z,20.30
2018-09-11T07:23:14.154Z,20.40
2018-09-11T07:28:17.267Z,20.50
2018-09-11T07:33:20.379Z,20.60
2018-09-11T07:38:23.451Z,20.70
2018-09-11T07:43:27.363Z,20.80
2018-09-11T07:48:30.496Z,20.80
2018-09-11T07:53:40.059Z,20.90
2018-09-11T07:58:43.176Z,21.00
2018-09-11T08:03:46.267Z,21.10
2018-09-11T08:08:49.379Z,21.20
2018-09-11T08:13:52.952Z,21.30
2018-09-11T08:18:56.089Z,21.40
2018-09-11T08:23:59.324Z,21.40
2018-09-11T08:29:02.518Z,21.40
2018-09-11T08:34:05.667Z,21.50
2018-09-11T08:39:09.968Z,21.60
2018-09-11T08:44:13.088Z,21.70
2018-09-11T08:49:16.204Z,21.80
2018-09-11T08:54:19.316Z,22.00
2018-09-11T08:59:22.476Z,22.10
2018-09-11T09:04:25.550Z,22.30
2018-09-11T09:09:28.672Z,22.40
2018-09-11T09:14:31.766Z,22.50
2018-09-11T09:19:34.870Z,22.70
2018-09-11T09:24:37.988Z,22.80
2018-09-11T09:29:41.072Z,22.90
2018-09-11T09:34:44.202Z,23.00
2018-09-11T09:39:47.326Z,23.20
2018-09-11T09:44:50.417Z,23.40
2018-09-11T09:49:53.528Z,23.50
2018-09-11T09:54:56.983Z,23.70
2018-09-11T10:00:00.544Z,23.90
2018-09-11T10:05:04.062Z,24.00
2018-09-11T10:10:07.270Z,24.20
2018-09-11T10:15:10.707Z,24.40
2018-09-11T10:20:13.916Z,24.50
2018-09-11T10:25:17.106Z,24.60
2018-09-11T10:30:20.210Z,24.60
2018-09-11T10:35:23.341Z,24.60
2018-09-11T10:40:26.431Z,24.70
2018-09-11T10:45:29.539Z,24.80
2018-09-11T10:50:32.646Z,24.90
2018-09-11T10:55:35.767Z,25.00
2018-09-11T11:00:38.850Z,25.10
2018-09-11T11:05:41.951Z,25.20
2018-09-11T11:10:45.404Z,25.20
2018-09-11T11:15:49.115Z,25.20
2018-09-11T11:20:52.307Z,25.30
2018-09-11T11:25:55.415Z,25.40
2018-09-11T11:30:58.533Z,25.40
2018-09-11T11:36:01.785Z,25.60
2018-09-11T11:41:05.048Z,25.70
2018-09-11T11:46:08.151Z,25.90
2018-09-11T11:51:12.222Z,26.00
2018-09-11T11:56:15.380Z,26.20
2018-09-11T12:01:18.544Z,26.40
2018-09-11T12:06:21.644Z,26.60
2018-09-11T12:11:24.759Z,26.80
2018-09-11T12:16:27.893Z,26.90
2018-09-11T12:21:30.994Z,27.00
2018-09-11T12:26:34.108Z,27.20
2018-09-11T12:31:37.259Z,27.30
2018-09-11T12:36:40.354Z,27.50
2018-09-11T12:41:43.443Z,27.60
2018-09-11T12:46:46.798Z,27.70
2018-09-11T12:51:49.796Z,27.90
2018-09-11T12:56:53.124Z,28.00
2018-09-11T13:01:56.292Z,28.10
2018-09-11T13:06:59.372Z,28.10
2018-09-11T13:12:02.531Z,28.10
2018-09-11T13:17:05.643Z,28.20
2018-09-11T13:22:08.816Z,28.30
2018-09-11T13:27:11.943Z,28.30
2018-09-11T13:32:15.036Z,28.40
2018-09-11T13:37:18.111Z,28.50
2018-09-11T13:42:21.208Z,28.60
2018-09-11T13:47:24.510Z,28.70
2018-09-11T13:52:27.437Z,28.70
2018-09-11T13:57:30.523Z,28.70
2018-09-11T14:02:33.724Z,28.60
2018-09-11T14:07:36.771Z,28.60
2018-09-11T14:12:40.047Z,28.40
2018-09-11T14:17:43.136Z,28.30
2018-09-11T14:22:46.319Z,28.20
2018-09-11T14:27:49.418Z,28.10
2018-09-11T14:32:52.510Z,28.00
2018-09-11T14:37:55.608Z,27.90
2018-09-11T14:42:58.697Z,27.90
2018-09-11T14:48:01.818Z,27.80
2018-09-11T14:53:04.926Z,27.70
2018-09-11T14:58:08.032Z,27.70
2018-09-11T15:03:11.171Z,27.70
2018-09-11T15:08:14.396Z,27.60
2018-09-11T15:13:17.612Z,27.60
2018-09-11T15:18:20.799Z,27.60
2018-09-11T15:23:23.919Z,27.50
2018-09-11T15:28:27.054Z,27.50
2018-09-11T15:33:30.376Z,27.40
2018-09-11T15:38:33.475Z,27.40
2018-09-11T15:43:36.591Z,27.20
2018-09-11T15:48:39.704Z,27.20
2018-09-11T15:53:42.874Z,27.10
2018-09-11T15:58:45.962Z,27.00
2018-09-11T16:03:49.111Z,26.80
2018-09-11T16:08:52.337Z,26.80
2018-09-11T16:13:55.492Z,26.80
2018-09-11T16:18:58.678Z,26.70
2018-09-11T16:24:02.355Z,26.60
2018-09-11T16:29:05.475Z,26.50
2018-09-11T16:34:08.637Z,26.50
2018-09-11T16:39:12.703Z,26.40
2018-09-11T16:44:15.835Z,26.40
2018-09-11T16:49:18.941Z,26.30
2018-09-11T16:54:22.022Z,26.20
2018-09-11T16:59:25.127Z,26.20
2018-09-11T17:04:28.240Z,26.20
2018-09-11T17:09:31.404Z,26.10
2018-09-11T17:14:34.499Z,26.00
2018-09-11T17:19:37.584Z,25.90
2018-09-11T17:24:40.687Z,25.80
2018-09-11T17:29:43.795Z,25.70
2018-09-11T17:34:46.965Z,25.60
2018-09-11T17:39:50.131Z,25.60
2018-09-11T17:44:53.200Z,25.50
2018-09-11T17:49:56.325Z,25.60
2018-09-11T17:54:59.600Z,25.50
2018-09-11T18:00:02.737Z,25.40
2018-09-11T18:05:06.221Z,25.30
2018-09-11T18:10:09.350Z,25.20
2018-09-11T18:15:12.459Z,25.20
2018-09-11T18:20:15.690Z,25.10
2018-09-11T18:25:18.821Z,25.10
2018-09-11T18:35:31.501Z,25.00
2018-09-11T18:40:34.588Z,25.00
2018-09-11T18:45:37.692Z,25.00
2018-09-11T18:50:40.803Z,24.90
2018-09-11T18:55:43.950Z,24.90
2018-09-11T19:00:47.064Z,24.80
2018-09-11T19:05:50.182Z,24.80
2018-09-11T19:10:53.347Z,24.80
2018-09-11T19:15:56.471Z,24.70
2018-09-11T19:20:59.587Z,24.70
2018-09-11T19:26:02.697Z,24.70
2018-09-11T19:31:05.822Z,24.60
2018-09-11T19:36:08.923Z,24.60
2018-09-11T19:41:12.019Z,24.50
2018-09-11T19:46:15.180Z,24.50
2018-09-11T19:51:18.291Z,24.40
2018-09-11T19:56:21.387Z,24.40
2018-09-11T20:01:24.495Z,24.40
2018-09-11T20:06:27.591Z,24.40
2018-09-11T20:11:30.706Z,24.30
2018-09-11T20:16:33.808Z,24.30
2018-09-11T20:21:36.886Z,24.30
2018-09-11T20:26:40.021Z,24.30
2018-09-11T20:31:43.615Z,24.20
2018-09-11T20:36:46.774Z,24.20
2018-09-11T20:41:49.875Z,24.10
2018-09-11T20:46:52.985Z,24.10
2018-09-11T20:51:56.168Z,24.10
2018-09-11T20:56:59.243Z,24.00
2018-09-11T21:02:02.348Z,24.00
2018-09-11T21:07:05.519Z,24.00
2018-09-11T21:12:08.631Z,24.00
2018-09-11T21:17:11.788Z,23.90
2018-09-11T21:22:14.940Z,23.90
2018-09-11T21:27:18.047Z,23.90
2018-09-11T21:32:21.175Z,23.80
2018-09-11T21:37:24.284Z,23.80
2018-09-11T21:42:27.451Z,23.80
2018-09-11T21:47:30.571Z,23.80
2018-09-11T21:52:33.682Z,23.70
2018-09-11T21:57:36.836Z,23.70
2018-09-11T22:02:39.936Z,23.70
2018-09-11T22:07:43.042Z,23.70
2018-09-11T22:12:46.171Z,23.70
2018-09-11T22:17:49.307Z,23.60
2018-09-11T22:22:52.420Z,23.60
2018-09-11T22:27:55.515Z,23.60
2018-09-11T22:32:58.631Z,23.60
2018-09-11T22:38:01.719Z,23.50
2018-09-11T22:43:05.296Z,23.60
2018-09-11T22:48:08.350Z,23.50
2018-09-11T22:53:11.459Z,23.50
2018-09-11T22:58:14.554Z,23.50
2018-09-11T23:03:17.631Z,23.40
2018-09-11T23:08:20.759Z,23.40
2018-09-11T23:13:23.875Z,23.40
2018-09-11T23:18:26.971Z,23.40
2018-09-11T23:23:30.071Z,23.40
2018-09-11T23:28:33.192Z,23.30
2018-09-11T23:33:36.293Z,23.30
2018-09-11T23:38:39.393Z,23.30
2018-09-11T23:43:42.503Z,23.30
2018-09-11T23:48:45.703Z,23.30
2018-09-11T23:53:48.806Z,23.30
2018-09-11T23:58:51.993Z,23.30
